sensor_id;sensor_type;location;lat;lon;timestamp;P1;durP1;ratioP1;P2;durP2;ratioP2
22648;SDS011;11491;41.942;24.220;2023-08-06T00:01:27;10.15;;;6.18;;
22648;SDS011;11491;41.942;24.220;2023-08-06T00:03:53;9.32;;;7.38;;
22648;SDS011;11491;41.942;24.220;2023-08-06T00:06:20;9.60;;;5.80;;
22648;SDS011;11491;41.942;24.220;2023-08-06T00:08:47;7.35;;;6.07;;
22648;SDS011;11491;41.942;24.220;2023-08-06T00:11:14;7.85;;;6.03;;
22648;SDS011;11491;41.942;24.220;2023-08-06T00:13:42;8.45;;;6.57;;
22648;SDS011;11491;41.942;24.220;2023-08-06T00:16:09;7.03;;;6.32;;
22648;SDS011;11491;41.942;24.220;2023-08-06T00:18:36;7.15;;;6.45;;
22648;SDS011;11491;41.942;24.220;2023-08-06T00:21:03;9.73;;;6.88;;
22648;SDS011;11491;41.942;24.220;2023-08-06T00:23:30;10.00;;;7.55;;
22648;SDS011;11491;41.942;24.220;2023-08-06T00:25:57;10.88;;;8.13;;
22648;SDS011;11491;41.942;24.220;2023-08-06T00:28:24;11.55;;;8.77;;
22648;SDS011;11491;41.942;24.220;2023-08-06T00:30:53;11.63;;;9.10;;
22648;SDS011;11491;41.942;24.220;2023-08-06T00:33:20;10.65;;;9.43;;
22648;SDS011;11491;41.942;24.220;2023-08-06T00:35:47;13.20;;;9.65;;
22648;SDS011;11491;41.942;24.220;2023-08-06T00:38:14;22.10;;;9.98;;
22648;SDS011;11491;41.942;24.220;2023-08-06T00:40:41;14.15;;;10.38;;
22648;SDS011;11491;41.942;24.220;2023-08-06T00:43:08;13.85;;;10.15;;
22648;SDS011;11491;41.942;24.220;2023-08-06T00:45:35;15.85;;;10.30;;
22648;SDS011;11491;41.942;24.220;2023-08-06T00:48:04;14.35;;;10.50;;
22648;SDS011;11491;41.942;24.220;2023-08-06T00:50:32;22.10;;;11.57;;
22648;SDS011;11491;41.942;24.220;2023-08-06T00:52:59;12.90;;;10.70;;
22648;SDS011;11491;41.942;24.220;2023-08-06T00:55:26;15.73;;;11.20;;
22648;SDS011;11491;41.942;24.220;2023-08-06T00:57:52;14.68;;;11.30;;
22648;SDS011;11491;41.942;24.220;2023-08-06T01:00:21;17.17;;;11.70;;
22648;SDS011;11491;41.942;24.220;2023-08-06T01:02:48;15.55;;;11.70;;
22648;SDS011;11491;41.942;24.220;2023-08-06T01:05:16;11.85;;;10.63;;
22648;SDS011;11491;41.942;24.220;2023-08-06T01:07:46;11.35;;;9.15;;
22648;SDS011;11491;41.942;24.220;2023-08-06T01:10:27;15.10;;;10.35;;
22648;SDS011;11491;41.942;24.220;2023-08-06T01:13:07;12.32;;;11.07;;
22648;SDS011;11491;41.942;24.220;2023-08-06T01:15:38;14.07;;;12.60;;
22648;SDS011;11491;41.942;24.220;2023-08-06T01:18:09;16.02;;;13.30;;
22648;SDS011;11491;41.942;24.220;2023-08-06T01:20:38;14.98;;;13.48;;
22648;SDS011;11491;41.942;24.220;2023-08-06T01:23:04;16.27;;;14.55;;
22648;SDS011;11491;41.942;24.220;2023-08-06T01:25:33;16.27;;;14.48;;
22648;SDS011;11491;41.942;24.220;2023-08-06T01:28:03;20.88;;;14.10;;
22648;SDS011;11491;41.942;24.220;2023-08-06T01:30:37;16.33;;;14.48;;
22648;SDS011;11491;41.942;24.220;2023-08-06T01:33:08;18.50;;;16.02;;
22648;SDS011;11491;41.942;24.220;2023-08-06T01:35:42;17.15;;;15.40;;
22648;SDS011;11491;41.942;24.220;2023-08-06T01:38:09;16.67;;;14.90;;
22648;SDS011;11491;41.942;24.220;2023-08-06T01:40:36;18.45;;;14.80;;
22648;SDS011;11491;41.942;24.220;2023-08-06T01:43:02;23.90;;;14.73;;
22648;SDS011;11491;41.942;24.220;2023-08-06T01:45:29;28.63;;;13.07;;
22648;SDS011;11491;41.942;24.220;2023-08-06T01:47:56;17.55;;;12.13;;
22648;SDS011;11491;41.942;24.220;2023-08-06T01:50:23;25.17;;;12.50;;
22648;SDS011;11491;41.942;24.220;2023-08-06T01:52:51;20.50;;;14.35;;
22648;SDS011;11491;41.942;24.220;2023-08-06T01:55:17;25.35;;;17.13;;
22648;SDS011;11491;41.942;24.220;2023-08-06T01:57:44;27.52;;;17.23;;
22648;SDS011;11491;41.942;24.220;2023-08-06T02:00:11;23.67;;;18.42;;
22648;SDS011;11491;41.942;24.220;2023-08-06T02:02:38;23.83;;;17.73;;
22648;SDS011;11491;41.942;24.220;2023-08-06T02:05:06;31.33;;;19.55;;
22648;SDS011;11491;41.942;24.220;2023-08-06T02:07:33;20.85;;;18.55;;
22648;SDS011;11491;41.942;24.220;2023-08-06T02:10:01;22.85;;;15.65;;
22648;SDS011;11491;41.942;24.220;2023-08-06T02:12:30;26.90;;;16.08;;
22648;SDS011;11491;41.942;24.220;2023-08-06T02:14:57;21.48;;;14.88;;
22648;SDS011;11491;41.942;24.220;2023-08-06T02:17:23;22.27;;;15.32;;
22648;SDS011;11491;41.942;24.220;2023-08-06T02:19:50;23.17;;;16.55;;
22648;SDS011;11491;41.942;24.220;2023-08-06T02:22:17;19.60;;;16.38;;
22648;SDS011;11491;41.942;24.220;2023-08-06T02:24:43;19.20;;;15.57;;
22648;SDS011;11491;41.942;24.220;2023-08-06T02:27:11;24.42;;;17.55;;
22648;SDS011;11491;41.942;24.220;2023-08-06T02:29:39;27.77;;;20.02;;
22648;SDS011;11491;41.942;24.220;2023-08-06T02:32:07;22.35;;;17.20;;
22648;SDS011;11491;41.942;24.220;2023-08-06T02:34:34;23.42;;;16.30;;
22648;SDS011;11491;41.942;24.220;2023-08-06T02:37:01;21.02;;;17.15;;
22648;SDS011;11491;41.942;24.220;2023-08-06T02:39:27;23.40;;;17.17;;
22648;SDS011;11491;41.942;24.220;2023-08-06T02:41:54;24.77;;;18.98;;
22648;SDS011;11491;41.942;24.220;2023-08-06T02:44:22;22.17;;;18.08;;
22648;SDS011;11491;41.942;24.220;2023-08-06T02:46:49;21.13;;;17.17;;
22648;SDS011;11491;41.942;24.220;2023-08-06T02:49:16;22.67;;;17.70;;
22648;SDS011;11491;41.942;24.220;2023-08-06T02:51:44;22.92;;;17.35;;
22648;SDS011;11491;41.942;24.220;2023-08-06T02:54:11;21.10;;;16.52;;
22648;SDS011;11491;41.942;24.220;2023-08-06T02:56:38;20.23;;;16.33;;
22648;SDS011;11491;41.942;24.220;2023-08-06T02:59:05;19.25;;;16.42;;
22648;SDS011;11491;41.942;24.220;2023-08-06T03:01:33;19.50;;;16.73;;
22648;SDS011;11491;41.942;24.220;2023-08-06T03:04:01;20.25;;;16.27;;
22648;SDS011;11491;41.942;24.220;2023-08-06T03:06:28;19.50;;;17.38;;
22648;SDS011;11491;41.942;24.220;2023-08-06T03:08:55;22.23;;;17.52;;
22648;SDS011;11491;41.942;24.220;2023-08-06T03:11:21;21.02;;;17.42;;
22648;SDS011;11491;41.942;24.220;2023-08-06T03:13:48;21.10;;;16.95;;
22648;SDS011;11491;41.942;24.220;2023-08-06T03:16:15;18.67;;;16.67;;
22648;SDS011;11491;41.942;24.220;2023-08-06T03:18:43;25.45;;;19.77;;
22648;SDS011;11491;41.942;24.220;2023-08-06T03:21:10;24.60;;;19.02;;
22648;SDS011;11491;41.942;24.220;2023-08-06T03:23:36;21.23;;;18.90;;
22648;SDS011;11491;41.942;24.220;2023-08-06T03:26:03;19.58;;;17.45;;
22648;SDS011;11491;41.942;24.220;2023-08-06T03:28:30;23.02;;;17.63;;
22648;SDS011;11491;41.942;24.220;2023-08-06T03:31:00;20.17;;;17.50;;
22648;SDS011;11491;41.942;24.220;2023-08-06T03:33:27;23.13;;;18.20;;
22648;SDS011;11491;41.942;24.220;2023-08-06T03:35:55;19.60;;;17.50;;
22648;SDS011;11491;41.942;24.220;2023-08-06T03:38:22;19.95;;;16.10;;
22648;SDS011;11491;41.942;24.220;2023-08-06T03:40:48;18.85;;;16.27;;
22648;SDS011;11491;41.942;24.220;2023-08-06T03:43:15;20.05;;;15.82;;
22648;SDS011;11491;41.942;24.220;2023-08-06T03:45:42;24.13;;;21.25;;
22648;SDS011;11491;41.942;24.220;2023-08-06T03:48:09;25.33;;;21.77;;
22648;SDS011;11491;41.942;24.220;2023-08-06T03:50:36;24.20;;;20.58;;
22648;SDS011;11491;41.942;24.220;2023-08-06T03:53:04;22.02;;;18.17;;
22648;SDS011;11491;41.942;24.220;2023-08-06T03:55:31;20.42;;;15.90;;
22648;SDS011;11491;41.942;24.220;2023-08-06T03:57:58;18.35;;;15.07;;
22648;SDS011;11491;41.942;24.220;2023-08-06T04:00:24;20.63;;;18.08;;
22648;SDS011;11491;41.942;24.220;2023-08-06T04:02:51;21.33;;;18.88;;
22648;SDS011;11491;41.942;24.220;2023-08-06T04:05:18;19.40;;;17.30;;
22648;SDS011;11491;41.942;24.220;2023-08-06T04:07:45;19.45;;;16.90;;
22648;SDS011;11491;41.942;24.220;2023-08-06T04:10:13;20.63;;;18.52;;
22648;SDS011;11491;41.942;24.220;2023-08-06T04:12:39;20.73;;;17.42;;
22648;SDS011;11491;41.942;24.220;2023-08-06T04:15:06;21.65;;;18.52;;
22648;SDS011;11491;41.942;24.220;2023-08-06T04:17:34;18.83;;;16.83;;
22648;SDS011;11491;41.942;24.220;2023-08-06T04:20:00;15.93;;;14.23;;
22648;SDS011;11491;41.942;24.220;2023-08-06T04:22:27;15.80;;;13.43;;
22648;SDS011;11491;41.942;24.220;2023-08-06T04:24:54;14.65;;;13.15;;
22648;SDS011;11491;41.942;24.220;2023-08-06T04:27:22;16.77;;;15.18;;
22648;SDS011;11491;41.942;24.220;2023-08-06T04:29:49;19.73;;;17.67;;
22648;SDS011;11491;41.942;24.220;2023-08-06T04:32:15;18.88;;;16.98;;
22648;SDS011;11491;41.942;24.220;2023-08-06T04:34:44;20.40;;;17.20;;
22648;SDS011;11491;41.942;24.220;2023-08-06T04:37:11;19.88;;;17.30;;
22648;SDS011;11491;41.942;24.220;2023-08-06T04:39:38;18.73;;;15.20;;
22648;SDS011;11491;41.942;24.220;2023-08-06T04:42:05;14.50;;;13.10;;
22648;SDS011;11491;41.942;24.220;2023-08-06T04:44:34;14.82;;;13.35;;
22648;SDS011;11491;41.942;24.220;2023-08-06T04:47:00;14.73;;;13.15;;
22648;SDS011;11491;41.942;24.220;2023-08-06T04:49:27;14.80;;;13.20;;
22648;SDS011;11491;41.942;24.220;2023-08-06T04:51:54;16.70;;;14.35;;
22648;SDS011;11491;41.942;24.220;2023-08-06T04:54:22;18.98;;;15.65;;
22648;SDS011;11491;41.942;24.220;2023-08-06T05:02:54;18.73;;;15.98;;
22648;SDS011;11491;41.942;24.220;2023-08-06T05:05:59;20.73;;;17.95;;
22648;SDS011;11491;41.942;24.220;2023-08-06T05:08:25;21.08;;;18.85;;
22648;SDS011;11491;41.942;24.220;2023-08-06T05:10:52;29.60;;;23.63;;
22648;SDS011;11491;41.942;24.220;2023-08-06T05:13:19;24.60;;;20.73;;
22648;SDS011;11491;41.942;24.220;2023-08-06T05:15:46;21.15;;;19.05;;
22648;SDS011;11491;41.942;24.220;2023-08-06T05:18:14;21.63;;;19.30;;
22648;SDS011;11491;41.942;24.220;2023-08-06T05:20:41;20.27;;;17.23;;
22648;SDS011;11491;41.942;24.220;2023-08-06T05:23:08;23.23;;;18.23;;
22648;SDS011;11491;41.942;24.220;2023-08-06T05:25:35;19.58;;;17.42;;
22648;SDS011;11491;41.942;24.220;2023-08-06T05:28:02;22.15;;;20.00;;
22648;SDS011;11491;41.942;24.220;2023-08-06T05:30:29;20.13;;;18.15;;
22648;SDS011;11491;41.942;24.220;2023-08-06T05:32:56;21.85;;;17.20;;
22648;SDS011;11491;41.942;24.220;2023-08-06T05:35:24;18.88;;;16.98;;
22648;SDS011;11491;41.942;24.220;2023-08-06T05:37:51;18.75;;;16.95;;
22648;SDS011;11491;41.942;24.220;2023-08-06T05:40:18;19.10;;;16.77;;
22648;SDS011;11491;41.942;24.220;2023-08-06T05:42:45;19.73;;;16.60;;
22648;SDS011;11491;41.942;24.220;2023-08-06T05:45:11;18.88;;;16.95;;
22648;SDS011;11491;41.942;24.220;2023-08-06T05:47:38;21.95;;;17.40;;
22648;SDS011;11491;41.942;24.220;2023-08-06T05:50:05;18.70;;;16.38;;
22648;SDS011;11491;41.942;24.220;2023-08-06T05:52:35;18.77;;;16.95;;
22648;SDS011;11491;41.942;24.220;2023-08-06T05:55:02;19.10;;;17.10;;
22648;SDS011;11491;41.942;24.220;2023-08-06T05:57:29;21.05;;;16.88;;
22648;SDS011;11491;41.942;24.220;2023-08-06T05:59:56;17.90;;;16.00;;
22648;SDS011;11491;41.942;24.220;2023-08-06T06:02:23;52.72;;;29.08;;
22648;SDS011;11491;41.942;24.220;2023-08-06T06:04:49;19.42;;;15.73;;
22648;SDS011;11491;41.942;24.220;2023-08-06T06:07:16;16.50;;;14.90;;
22648;SDS011;11491;41.942;24.220;2023-08-06T06:09:44;18.08;;;15.10;;
22648;SDS011;11491;41.942;24.220;2023-08-06T06:12:11;22.67;;;20.40;;
22648;SDS011;11491;41.942;24.220;2023-08-06T06:14:38;24.15;;;21.55;;
22648;SDS011;11491;41.942;24.220;2023-08-06T06:17:05;16.58;;;14.98;;
22648;SDS011;11491;41.942;24.220;2023-08-06T06:19:31;19.75;;;16.77;;
22648;SDS011;11491;41.942;24.220;2023-08-06T06:21:58;16.88;;;15.15;;
22648;SDS011;11491;41.942;24.220;2023-08-06T06:24:26;16.42;;;14.43;;
22648;SDS011;11491;41.942;24.220;2023-08-06T06:26:54;19.48;;;14.32;;
22648;SDS011;11491;41.942;24.220;2023-08-06T06:29:21;14.82;;;13.32;;
22648;SDS011;11491;41.942;24.220;2023-08-06T06:31:47;14.85;;;13.30;;
22648;SDS011;11491;41.942;24.220;2023-08-06T06:34:14;14.90;;;13.38;;
22648;SDS011;11491;41.942;24.220;2023-08-06T06:36:41;14.75;;;13.35;;
22648;SDS011;11491;41.942;24.220;2023-08-06T06:39:07;14.70;;;13.25;;
22648;SDS011;11491;41.942;24.220;2023-08-06T06:41:37;14.93;;;12.70;;
22648;SDS011;11491;41.942;24.220;2023-08-06T06:44:05;13.15;;;11.95;;
22648;SDS011;11491;41.942;24.220;2023-08-06T06:46:32;13.45;;;12.27;;
22648;SDS011;11491;41.942;24.220;2023-08-06T06:48:58;13.35;;;11.82;;
22648;SDS011;11491;41.942;24.220;2023-08-06T06:51:25;13.35;;;11.95;;
22648;SDS011;11491;41.942;24.220;2023-08-06T06:53:52;12.13;;;10.98;;
22648;SDS011;11491;41.942;24.220;2023-08-06T06:56:19;13.20;;;11.95;;
22648;SDS011;11491;41.942;24.220;2023-08-06T06:58:45;12.45;;;11.15;;
22648;SDS011;11491;41.942;24.220;2023-08-06T07:01:14;12.98;;;11.82;;
22648;SDS011;11491;41.942;24.220;2023-08-06T07:03:41;15.88;;;14.05;;
22648;SDS011;11491;41.942;24.220;2023-08-06T07:06:07;15.10;;;12.15;;
22648;SDS011;11491;41.942;24.220;2023-08-06T07:08:34;12.15;;;10.95;;
22648;SDS011;11491;41.942;24.220;2023-08-06T07:11:01;12.18;;;10.95;;
22648;SDS011;11491;41.942;24.220;2023-08-06T07:13:28;14.13;;;11.75;;
22648;SDS011;11491;41.942;24.220;2023-08-06T07:15:55;14.40;;;11.05;;
22648;SDS011;11491;41.942;24.220;2023-08-06T07:18:24;15.23;;;13.63;;
22648;SDS011;11491;41.942;24.220;2023-08-06T07:20:51;14.57;;;12.85;;
22648;SDS011;11491;41.942;24.220;2023-08-06T07:23:18;15.27;;;13.88;;
22648;SDS011;11491;41.942;24.220;2023-08-06T07:25:46;15.85;;;13.65;;
22648;SDS011;11491;41.942;24.220;2023-08-06T07:28:13;16.27;;;14.68;;
22648;SDS011;11491;41.942;24.220;2023-08-06T07:30:40;17.42;;;15.63;;
22648;SDS011;11491;41.942;24.220;2023-08-06T07:33:07;18.58;;;16.67;;
22648;SDS011;11491;41.942;24.220;2023-08-06T07:35:35;19.00;;;17.10;;
22648;SDS011;11491;41.942;24.220;2023-08-06T07:38:02;20.02;;;17.90;;
22648;SDS011;11491;41.942;24.220;2023-08-06T07:40:29;20.27;;;17.70;;
22648;SDS011;11491;41.942;24.220;2023-08-06T07:42:56;21.95;;;17.80;;
22648;SDS011;11491;41.942;24.220;2023-08-06T07:45:23;18.40;;;16.55;;
22648;SDS011;11491;41.942;24.220;2023-08-06T07:47:51;16.73;;;15.07;;
22648;SDS011;11491;41.942;24.220;2023-08-06T07:50:18;18.15;;;15.45;;
22648;SDS011;11491;41.942;24.220;2023-08-06T07:52:46;19.75;;;16.15;;
22648;SDS011;11491;41.942;24.220;2023-08-06T07:55:13;22.65;;;17.08;;
22648;SDS011;11491;41.942;24.220;2023-08-06T07:57:40;22.00;;;14.23;;
22648;SDS011;11491;41.942;24.220;2023-08-06T08:00:07;24.17;;;16.05;;
22648;SDS011;11491;41.942;24.220;2023-08-06T08:02:35;20.23;;;14.32;;
22648;SDS011;11491;41.942;24.220;2023-08-06T08:05:05;11.50;;;10.30;;
22648;SDS011;11491;41.942;24.220;2023-08-06T08:07:32;12.48;;;10.80;;
22648;SDS011;11491;41.942;24.220;2023-08-06T08:10:00;13.38;;;11.25;;
22648;SDS011;11491;41.942;24.220;2023-08-06T08:12:28;11.52;;;9.70;;
22648;SDS011;11491;41.942;24.220;2023-08-06T08:14:54;10.90;;;9.00;;
22648;SDS011;11491;41.942;24.220;2023-08-06T08:17:21;11.70;;;10.43;;
22648;SDS011;11491;41.942;24.220;2023-08-06T08:19:48;12.20;;;10.57;;
22648;SDS011;11491;41.942;24.220;2023-08-06T08:22:15;14.10;;;11.50;;
22648;SDS011;11491;41.942;24.220;2023-08-06T08:24:41;16.58;;;10.00;;
22648;SDS011;11491;41.942;24.220;2023-08-06T08:27:09;9.00;;;7.82;;
22648;SDS011;11491;41.942;24.220;2023-08-06T08:29:36;9.98;;;7.95;;
22648;SDS011;11491;41.942;24.220;2023-08-06T08:32:03;7.78;;;6.97;;
22648;SDS011;11491;41.942;24.220;2023-08-06T08:34:31;9.00;;;7.28;;
22648;SDS011;11491;41.942;24.220;2023-08-06T08:36:58;9.77;;;7.95;;
22648;SDS011;11491;41.942;24.220;2023-08-06T08:39:24;9.27;;;8.25;;
22648;SDS011;11491;41.942;24.220;2023-08-06T08:41:51;8.45;;;7.55;;
22648;SDS011;11491;41.942;24.220;2023-08-06T08:44:20;9.60;;;8.60;;
22648;SDS011;11491;41.942;24.220;2023-08-06T08:46:46;10.80;;;8.60;;
22648;SDS011;11491;41.942;24.220;2023-08-06T08:49:14;9.60;;;8.07;;
22648;SDS011;11491;41.942;24.220;2023-08-06T08:51:41;10.52;;;8.32;;
22648;SDS011;11491;41.942;24.220;2023-08-06T08:54:09;9.75;;;7.75;;
22648;SDS011;11491;41.942;24.220;2023-08-06T08:56:39;9.13;;;8.25;;
22648;SDS011;11491;41.942;24.220;2023-08-06T08:59:06;10.65;;;8.75;;
22648;SDS011;11491;41.942;24.220;2023-08-06T09:01:34;9.15;;;7.85;;
22648;SDS011;11491;41.942;24.220;2023-08-06T09:04:01;10.52;;;7.75;;
22648;SDS011;11491;41.942;24.220;2023-08-06T09:06:29;9.75;;;8.32;;
22648;SDS011;11491;41.942;24.220;2023-08-06T09:09:01;9.60;;;8.63;;
22648;SDS011;11491;41.942;24.220;2023-08-06T09:11:32;7.95;;;7.15;;
22648;SDS011;11491;41.942;24.220;2023-08-06T09:14:06;9.10;;;7.00;;
22648;SDS011;11491;41.942;24.220;2023-08-06T09:16:35;7.80;;;6.95;;
22648;SDS011;11491;41.942;24.220;2023-08-06T09:19:06;7.90;;;7.07;;
22648;SDS011;11491;41.942;24.220;2023-08-06T09:21:35;8.10;;;7.40;;
22648;SDS011;11491;41.942;24.220;2023-08-06T09:24:06;8.27;;;6.97;;
22648;SDS011;11491;41.942;24.220;2023-08-06T09:26:34;8.40;;;6.55;;
22648;SDS011;11491;41.942;24.220;2023-08-06T09:29:03;11.35;;;7.18;;
22648;SDS011;11491;41.942;24.220;2023-08-06T09:31:32;8.02;;;6.20;;
22648;SDS011;11491;41.942;24.220;2023-08-06T09:34:01;7.10;;;6.40;;
22648;SDS011;11491;41.942;24.220;2023-08-06T09:36:29;9.40;;;6.07;;
22648;SDS011;11491;41.942;24.220;2023-08-06T09:38:56;7.65;;;6.47;;
22648;SDS011;11491;41.942;24.220;2023-08-06T09:41:26;7.22;;;6.53;;
22648;SDS011;11491;41.942;24.220;2023-08-06T09:43:53;6.57;;;5.97;;
22648;SDS011;11491;41.942;24.220;2023-08-06T09:46:20;7.22;;;6.10;;
22648;SDS011;11491;41.942;24.220;2023-08-06T09:48:47;7.20;;;6.20;;
22648;SDS011;11491;41.942;24.220;2023-08-06T09:51:16;7.82;;;6.15;;
22648;SDS011;11491;41.942;24.220;2023-08-06T09:53:43;7.55;;;6.60;;
22648;SDS011;11491;41.942;24.220;2023-08-06T09:56:10;7.60;;;6.85;;
22648;SDS011;11491;41.942;24.220;2023-08-06T09:58:39;7.50;;;6.57;;
22648;SDS011;11491;41.942;24.220;2023-08-06T10:01:06;6.72;;;6.03;;
22648;SDS011;11491;41.942;24.220;2023-08-06T10:03:33;7.32;;;6.13;;
22648;SDS011;11491;41.942;24.220;2023-08-06T10:06:00;7.78;;;7.07;;
22648;SDS011;11491;41.942;24.220;2023-08-06T10:08:32;11.02;;;7.45;;
22648;SDS011;11491;41.942;24.220;2023-08-06T10:10:59;8.60;;;7.80;;
22648;SDS011;11491;41.942;24.220;2023-08-06T10:13:29;9.80;;;8.05;;
22648;SDS011;11491;41.942;24.220;2023-08-06T10:15:57;9.32;;;8.02;;
22648;SDS011;11491;41.942;24.220;2023-08-06T10:18:26;10.30;;;8.18;;
22648;SDS011;11491;41.942;24.220;2023-08-06T10:20:54;10.65;;;8.40;;
22648;SDS011;11491;41.942;24.220;2023-08-06T10:23:21;10.70;;;8.05;;
22648;SDS011;11491;41.942;24.220;2023-08-06T10:26:03;10.00;;;8.13;;
22648;SDS011;11491;41.942;24.220;2023-08-06T10:28:36;9.45;;;8.57;;
22648;SDS011;11491;41.942;24.220;2023-08-06T10:33:40;12.88;;;10.07;;
22648;SDS011;11491;41.942;24.220;2023-08-06T10:36:09;9.43;;;8.52;;
22648;SDS011;11491;41.942;24.220;2023-08-06T10:38:44;10.40;;;8.95;;
22648;SDS011;11491;41.942;24.220;2023-08-06T10:41:16;11.18;;;8.93;;
22648;SDS011;11491;41.942;24.220;2023-08-06T10:43:45;9.30;;;8.40;;
22648;SDS011;11491;41.942;24.220;2023-08-06T10:46:21;9.52;;;8.45;;
22648;SDS011;11491;41.942;24.220;2023-08-06T10:48:49;9.82;;;8.85;;
22648;SDS011;11491;41.942;24.220;2023-08-06T10:51:16;11.10;;;9.00;;
22648;SDS011;11491;41.942;24.220;2023-08-06T10:53:45;10.00;;;8.57;;
22648;SDS011;11491;41.942;24.220;2023-08-06T10:56:13;8.55;;;7.47;;
22648;SDS011;11491;41.942;24.220;2023-08-06T10:58:40;8.25;;;7.55;;
22648;SDS011;11491;41.942;24.220;2023-08-06T11:01:07;7.22;;;6.53;;
22648;SDS011;11491;41.942;24.220;2023-08-06T11:03:34;8.75;;;7.85;;
22648;SDS011;11491;41.942;24.220;2023-08-06T11:06:01;43.47;;;21.50;;
22648;SDS011;11491;41.942;24.220;2023-08-06T11:08:29;14.77;;;11.55;;
22648;SDS011;11491;41.942;24.220;2023-08-06T11:11:08;10.90;;;9.50;;
22648;SDS011;11491;41.942;24.220;2023-08-06T11:13:38;12.18;;;10.32;;
22648;SDS011;11491;41.942;24.220;2023-08-06T11:16:04;10.90;;;9.80;;
22648;SDS011;11491;41.942;24.220;2023-08-06T11:18:32;9.25;;;8.35;;
22648;SDS011;11491;41.942;24.220;2023-08-06T11:20:58;9.88;;;8.88;;
22648;SDS011;11491;41.942;24.220;2023-08-06T11:23:26;11.40;;;10.30;;
22648;SDS011;11491;41.942;24.220;2023-08-06T11:25:53;18.17;;;13.55;;
22648;SDS011;11491;41.942;24.220;2023-08-06T11:28:22;17.10;;;10.95;;
22648;SDS011;11491;41.942;24.220;2023-08-06T11:30:48;12.00;;;9.90;;
22648;SDS011;11491;41.942;24.220;2023-08-06T11:33:19;11.27;;;10.05;;
22648;SDS011;11491;41.942;24.220;2023-08-06T11:35:47;11.77;;;10.57;;
22648;SDS011;11491;41.942;24.220;2023-08-06T11:38:14;10.90;;;9.90;;
22648;SDS011;11491;41.942;24.220;2023-08-06T11:40:41;10.80;;;9.75;;
22648;SDS011;11491;41.942;24.220;2023-08-06T11:43:10;12.63;;;9.32;;
22648;SDS011;11491;41.942;24.220;2023-08-06T11:45:38;9.57;;;8.77;;
22648;SDS011;11491;41.942;24.220;2023-08-06T11:48:05;9.63;;;8.45;;
22648;SDS011;11491;41.942;24.220;2023-08-06T11:50:35;8.35;;;7.55;;
22648;SDS011;11491;41.942;24.220;2023-08-06T11:53:03;9.10;;;8.20;;
22648;SDS011;11491;41.942;24.220;2023-08-06T11:55:30;9.23;;;7.18;;
22648;SDS011;11491;41.942;24.220;2023-08-06T11:57:58;6.60;;;6.00;;
22648;SDS011;11491;41.942;24.220;2023-08-06T12:00:25;5.95;;;5.45;;
22648;SDS011;11491;41.942;24.220;2023-08-06T12:02:53;8.55;;;7.75;;
22648;SDS011;11491;41.942;24.220;2023-08-06T12:05:20;9.45;;;8.52;;
22648;SDS011;11491;41.942;24.220;2023-08-06T12:07:49;9.27;;;8.38;;
22648;SDS011;11491;41.942;24.220;2023-08-06T12:10:17;7.53;;;6.80;;
22648;SDS011;11491;41.942;24.220;2023-08-06T12:12:45;7.03;;;6.32;;
22648;SDS011;11491;41.942;24.220;2023-08-06T12:15:12;8.07;;;6.45;;
22648;SDS011;11491;41.942;24.220;2023-08-06T12:17:40;6.63;;;6.03;;
22648;SDS011;11491;41.942;24.220;2023-08-06T12:20:09;6.43;;;5.82;;
22648;SDS011;11491;41.942;24.220;2023-08-06T12:22:36;7.90;;;6.30;;
22648;SDS011;11491;41.942;24.220;2023-08-06T12:25:05;8.30;;;7.45;;
22648;SDS011;11491;41.942;24.220;2023-08-06T12:27:34;6.18;;;5.28;;
22648;SDS011;11491;41.942;24.220;2023-08-06T12:30:01;5.20;;;4.70;;
22648;SDS011;11491;41.942;24.220;2023-08-06T12:32:28;6.13;;;4.63;;
22648;SDS011;11491;41.942;24.220;2023-08-06T12:34:55;7.70;;;5.10;;
22648;SDS011;11491;41.942;24.220;2023-08-06T12:37:23;5.70;;;4.22;;
22648;SDS011;11491;41.942;24.220;2023-08-06T12:39:50;7.22;;;4.80;;
22648;SDS011;11491;41.942;24.220;2023-08-06T12:42:17;5.05;;;4.45;;
22648;SDS011;11491;41.942;24.220;2023-08-06T12:44:44;5.43;;;4.78;;
22648;SDS011;11491;41.942;24.220;2023-08-06T12:47:11;5.38;;;4.88;;
22648;SDS011;11491;41.942;24.220;2023-08-06T12:49:37;5.95;;;4.93;;
22648;SDS011;11491;41.942;24.220;2023-08-06T12:52:04;5.28;;;4.20;;
22648;SDS011;11491;41.942;24.220;2023-08-06T12:54:34;4.68;;;3.70;;
22648;SDS011;11491;41.942;24.220;2023-08-06T12:57:02;4.40;;;3.90;;
22648;SDS011;11491;41.942;24.220;2023-08-06T12:59:29;4.80;;;4.30;;
22648;SDS011;11491;41.942;24.220;2023-08-06T13:01:58;5.60;;;4.30;;
22648;SDS011;11491;41.942;24.220;2023-08-06T13:04:24;6.32;;;5.05;;
22648;SDS011;11491;41.942;24.220;2023-08-06T13:06:52;5.65;;;5.05;;
22648;SDS011;11491;41.942;24.220;2023-08-06T13:09:19;6.63;;;4.13;;
22648;SDS011;11491;41.942;24.220;2023-08-06T13:11:47;5.50;;;3.53;;
22648;SDS011;11491;41.942;24.220;2023-08-06T13:14:15;4.10;;;3.00;;
22648;SDS011;11491;41.942;24.220;2023-08-06T13:16:42;4.90;;;3.00;;
22648;SDS011;11491;41.942;24.220;2023-08-06T13:19:10;4.55;;;3.30;;
22648;SDS011;11491;41.942;24.220;2023-08-06T13:21:58;3.20;;;2.53;;
22648;SDS011;11491;41.942;24.220;2023-08-06T13:24:25;5.97;;;2.85;;
22648;SDS011;11491;41.942;24.220;2023-08-06T13:26:53;3.83;;;2.88;;
22648;SDS011;11491;41.942;24.220;2023-08-06T13:29:20;4.15;;;2.40;;
22648;SDS011;11491;41.942;24.220;2023-08-06T13:31:47;3.20;;;2.85;;
22648;SDS011;11491;41.942;24.220;2023-08-06T13:34:14;3.40;;;2.67;;
22648;SDS011;11491;41.942;24.220;2023-08-06T13:36:41;4.55;;;2.63;;
22648;SDS011;11491;41.942;24.220;2023-08-06T13:39:08;3.35;;;2.75;;
22648;SDS011;11491;41.942;24.220;2023-08-06T13:41:35;3.33;;;2.67;;
22648;SDS011;11491;41.942;24.220;2023-08-06T13:44:05;3.35;;;2.65;;
22648;SDS011;11491;41.942;24.220;2023-08-06T13:46:32;5.55;;;2.97;;
22648;SDS011;11491;41.942;24.220;2023-08-06T13:48:58;4.38;;;2.83;;
22648;SDS011;11491;41.942;24.220;2023-08-06T13:51:25;4.03;;;2.58;;
22648;SDS011;11491;41.942;24.220;2023-08-06T13:53:52;2.50;;;2.30;;
22648;SDS011;11491;41.942;24.220;2023-08-06T13:56:19;3.90;;;2.60;;
22648;SDS011;11491;41.942;24.220;2023-08-06T13:58:46;3.58;;;2.47;;
22648;SDS011;11491;41.942;24.220;2023-08-06T14:01:16;4.88;;;3.78;;
22648;SDS011;11491;41.942;24.220;2023-08-06T14:03:44;4.90;;;3.35;;
22648;SDS011;11491;41.942;24.220;2023-08-06T14:06:10;6.38;;;3.28;;
22648;SDS011;11491;41.942;24.220;2023-08-06T14:08:37;4.40;;;2.95;;
22648;SDS011;11491;41.942;24.220;2023-08-06T14:11:05;5.45;;;3.20;;
22648;SDS011;11491;41.942;24.220;2023-08-06T14:13:32;2.67;;;2.47;;
22648;SDS011;11491;41.942;24.220;2023-08-06T14:15:59;3.20;;;2.70;;
22648;SDS011;11491;41.942;24.220;2023-08-06T14:18:27;3.92;;;3.10;;
22648;SDS011;11491;41.942;24.220;2023-08-06T14:20:53;5.68;;;3.90;;
22648;SDS011;11491;41.942;24.220;2023-08-06T14:23:20;3.63;;;2.95;;
22648;SDS011;11491;41.942;24.220;2023-08-06T14:25:47;6.85;;;3.90;;
22648;SDS011;11491;41.942;24.220;2023-08-06T14:28:14;3.88;;;3.22;;
22648;SDS011;11491;41.942;24.220;2023-08-06T14:30:40;8.82;;;3.65;;